Time;durP1;ratioP1;P1;durP2;ratioP2;P2;SDS_P1;SDS_P2;PMS_P1;PMS_P2;Temp;Humidity;BMP_temperature;BMP_pressure;BME280_temperature;BME280_humidity;BME280_pressure;Samples;Min_cycle;Max_cycle;Signal;HPM_P1;HPM_P2
2022/05/15 00:00:42;;;;;;;25.73;7.30;;;;;;;15.97;58.87;101948.91;5018666;28;20048;-46
2022/05/15 00:03:15;;;;;;;25.52;7.05;;;;;;;15.97;58.92;101943.44;5034761;28;20052;-48
2022/05/15 00:05:44;;;;;;;23.73;10.50;;;;;;;15.96;58.89;101938.19;5033253;28;20042;-47
2022/05/15 00:08:12;;;;;;;22.02;7.35;;;;;;;15.89;59.42;101940.41;5017376;28;20564;-44
2022/05/15 00:10:41;;;;;;;23.17;6.95;;;;;;;15.85;59.44;101936.53;5033461;28;20053;-46
2022/05/15 00:13:09;;;;;;;19.05;7.18;;;;;;;15.86;59.66;101939.03;5033212;28;20508;-50
2022/05/15 00:15:38;;;;;;;23.25;7.15;;;;;;;15.89;59.24;101935.72;5033041;28;20052;-49
2022/05/15 00:18:06;;;;;;;23.48;7.38;;;;;;;15.88;59.09;101938.75;5033482;28;20054;-46
2022/05/15 00:20:34;;;;;;;21.42;7.72;;;;;;;15.91;59.51;101944.53;5028612;28;20054;-47
2022/05/15 00:23:02;;;;;;;25.60;7.85;;;;;;;15.90;59.05;101933.81;5023540;28;20095;-47
2022/05/15 00:25:30;;;;;;;27.80;7.15;;;;;;;15.89;59.21;101935.72;5033367;28;20056;-44
2022/05/15 00:27:59;;;;;;;22.08;7.13;;;;;;;15.89;59.50;101934.91;5002623;28;20045;-45
2022/05/15 00:30:27;;;;;;;20.95;7.00;;;;;;;15.88;59.30;101938.75;5011287;28;20053;-47
2022/05/15 00:32:55;;;;;;;23.60;6.72;;;;;;;15.88;59.73;101936.00;5000055;28;20148;-47
2022/05/15 00:35:23;;;;;;;24.95;6.78;;;;;;;15.86;59.77;101933.53;5034216;28;20057;-45
2022/05/15 00:37:50;;;;;;;23.20;6.75;;;;;;;15.88;59.71;101933.28;5030187;28;20073;-46
2022/05/15 00:40:20;;;;;;;24.70;7.32;;;;;;;15.87;59.29;101932.41;4997825;28;20064;-49
2022/05/15 00:42:48;;;;;;;25.27;6.30;;;;;;;15.86;59.40;101932.72;5019810;28;20042;-44
2022/05/15 00:45:19;;;;;;;22.15;7.10;;;;;;;15.88;59.51;101922.28;4996915;28;20052;-46
2022/05/15 00:47:47;;;;;;;20.70;5.93;;;;;;;15.91;59.73;101922.53;5029248;28;20061;-49
2022/05/15 00:50:26;;;;;;;24.95;6.82;;;;;;;15.96;59.22;101927.19;5033034;28;20044;-48
2022/05/15 00:52:57;;;;;;;24.00;6.38;;;;;;;15.94;59.32;101921.16;4999880;28;20038;-48
2022/05/15 00:55:31;;;;;;;22.50;6.93;;;;;;;15.91;59.58;101919.78;5016640;28;20045;-48
2022/05/15 00:58:05;;;;;;;25.27;7.03;;;;;;;15.90;59.67;101920.91;4987282;28;20065;-48
2022/05/15 01:00:34;;;;;;;21.83;6.78;;;;;;;15.88;59.84;101916.78;5011728;28;20049;-49
2022/05/15 01:03:18;;;;;;;21.77;6.20;;;;;;;15.88;59.79;101914.03;5001200;28;20053;-49
2022/05/15 01:06:09;;;;;;;23.20;6.80;;;;;;;15.88;59.76;101911.28;5027733;28;20093;-45
2022/05/15 01:08:58;;;;;;;22.95;5.88;;;;;;;15.88;59.86;101908.53;5016792;28;20076;-50
2022/05/15 01:11:49;;;;;;;25.50;7.30;;;;;;;15.86;59.88;101916.22;5001511;28;20416;-47
2022/05/15 01:14:18;;;;;;;25.17;7.22;;;;;;;15.79;60.06;101908.25;5014494;28;20050;-49
2022/05/15 01:16:45;;;;;;;24.95;7.15;;;;;;;15.74;59.98;101908.25;5015503;28;20038;-49
2022/05/15 01:19:14;;;;;;;25.38;7.18;;;;;;;15.70;60.12;101918.97;5016030;28;20041;-47
2022/05/15 01:21:52;;;;;;;24.25;6.88;;;;;;;15.67;60.39;101911.25;5016115;28;20488;-50
2022/05/15 01:24:21;;;;;;;24.33;6.93;;;;;;;15.65;60.24;101912.63;5013694;28;20073;-52
2022/05/15 01:26:49;;;;;;;23.83;6.75;;;;;;;15.64;60.55;101911.81;4996577;28;20046;-49
2022/05/15 01:29:17;;;;;;;22.33;6.43;;;;;;;15.62;60.38;101915.94;5012550;28;20403;-49
2022/05/15 01:31:48;;;;;;;22.63;6.47;;;;;;;15.62;60.39;101914.00;5023015;28;20044;-50
2022/05/15 01:34:16;;;;;;;23.88;6.75;;;;;;;15.66;60.39;101920.59;5007860;28;20046;-50
2022/05/15 01:36:45;;;;;;;26.33;7.75;;;;;;;15.68;60.53;101918.41;4996431;28;20194;-49
2022/05/15 01:39:12;;;;;;;20.50;6.47;;;;;;;15.65;60.51;101912.63;4996087;28;20079;-50
2022/05/15 01:41:41;;;;;;;20.83;6.22;;;;;;;15.64;60.50;101916.50;5013511;28;20034;-48
2022/05/15 01:44:10;;;;;;;22.67;6.30;;;;;;;15.62;60.48;101914.00;5030287;28;20068;-50
2022/05/15 01:46:38;;;;;;;23.95;6.90;;;;;;;15.66;60.06;101917.03;5007579;28;20099;-48
2022/05/15 01:49:12;;;;;;;19.58;6.15;;;;;;;15.61;60.68;101914.28;4999834;28;20510;-50
2022/05/15 01:51:41;;;;;;;23.27;6.35;;;;;;;15.59;60.65;101914.56;5032950;28;20049;-51
2022/05/15 01:54:10;;;;;;;25.02;6.78;;;;;;;15.53;60.59;101910.16;5015669;28;20408;-48
2022/05/15 01:56:38;;;;;;;24.48;7.43;;;;;;;15.51;61.01;101912.34;5012927;28;20092;-47
2022/05/15 01:59:06;;;;;;;25.85;6.32;;;;;;;15.50;60.74;101905.22;5013715;28;20506;-49
2022/05/15 02:01:37;;;;;;;25.48;7.10;;;;;;;15.45;61.17;101905.22;5015497;28;20045;-47
2022/05/15 02:04:07;;;;;;;25.65;7.15;;;;;;;15.42;61.12;101905.78;5015199;28;20049;-49
2022/05/15 02:06:37;;;;;;;23.35;7.03;;;;;;;15.38;61.38;101913.72;5031173;28;20441;-51
2022/05/15 02:09:05;;;;;;;23.42;7.30;;;;;;;15.33;61.44;101906.31;5030117;28;20396;-49
2022/05/15 02:11:34;;;;;;;23.70;6.75;;;;;;;15.38;61.30;101904.66;5015153;28;20049;-48
2022/05/15 02:14:02;;;;;;;26.52;6.57;;;;;;;15.37;61.50;101903.84;5015484;28;20045;-47
2022/05/15 02:16:31;;;;;;;26.20;6.90;;;;;;;15.28;61.62;101906.31;4994216;28;20041;-45
2022/05/15 02:18:59;;;;;;;25.65;7.38;;;;;;;15.20;61.95;101906.84;5011865;28;20046;-46
2022/05/15 02:21:27;;;;;;;26.38;7.55;;;;;;;15.15;62.26;101906.00;5009847;28;20489;-49
2022/05/15 02:23:55;;;;;;;27.80;6.85;;;;;;;15.15;62.12;101898.59;5011739;28;20048;-49
2022/05/15 02:26:23;;;;;;;24.50;6.43;;;;;;;15.10;62.54;101902.19;5012490;28;20041;-48
2022/05/15 02:28:51;;;;;;;25.58;6.50;;;;;;;15.10;62.33;101912.31;5014571;28;20046;-49
2022/05/15 02:31:18;;;;;;;29.48;7.63;;;;;;;15.10;62.46;101901.34;5032781;28;20411;-48
2022/05/15 02:33:46;;;;;;;24.67;6.90;;;;;;;15.09;62.54;101899.69;5032719;28;20045;-53
2022/05/15 02:36:13;;;;;;;25.52;6.63;;;;;;;15.09;62.58;101907.94;5014072;28;20512;-49
2022/05/15 02:38:41;;;;;;;27.73;6.47;;;;;;;15.11;62.48;101903.81;4996852;28;20069;-47
2022/05/15 02:41:09;;;;;;;21.38;6.07;;;;;;;15.10;62.30;101906.81;5007725;28;20049;-49
2022/05/15 02:43:36;;;;;;;25.08;6.72;;;;;;;15.07;62.42;101910.13;5013115;28;20042;-51
2022/05/15 02:46:04;;;;;;;21.92;6.28;;;;;;;15.06;62.52;101913.97;5011728;28;20400;-49
2022/05/15 02:51:19;;;;;;;21.88;6.57;;;;;;;14.95;63.04;101909.53;5018576;28;20044;-50
2022/05/15 02:53:47;;;;;;;24.50;6.40;;;;;;;14.94;62.95;101903.25;5018805;28;20042;-49
2022/05/15 02:56:20;;;;;;;22.40;6.70;;;;;;;14.89;63.13;101898.56;5004000;28;20045;-47
2022/05/15 02:58:48;;;;;;;24.02;6.63;;;;;;;14.89;63.20;101890.31;5014033;28;20656;-45
2022/05/15 03:01:16;;;;;;;24.25;7.30;;;;;;;14.87;62.98;101898.00;5001818;28;20184;-44
2022/05/15 03:03:44;;;;;;;22.23;6.30;;;;;;;14.79;63.38;101895.81;5018481;28;20049;-45
2022/05/15 03:06:12;;;;;;;28.50;6.68;;;;;;;14.77;63.73;101888.91;5025471;28;20045;-48
2022/05/15 03:08:42;;;;;;;26.15;7.15;;;;;;;14.79;63.45;101893.06;5002047;28;20496;-46
2022/05/15 03:11:10;;;;;;;26.20;6.80;;;;;;;14.76;63.63;101895.50;5033633;28;20037;-49
2022/05/15 03:13:39;;;;;;;22.10;6.20;;;;;;;14.77;63.29;101888.91;5034566;28;20441;-49
2022/05/15 03:16:08;;;;;;;22.83;6.15;;;;;;;14.81;63.51;101888.09;4995911;28;20034;-48
2022/05/15 03:18:41;;;;;;;23.08;6.90;;;;;;;14.83;63.40;101885.09;5031733;28;20050;-46
2022/05/15 03:21:10;;;;;;;23.00;6.97;;;;;;;14.76;63.62;101879.84;5018082;28;20559;-49
2022/05/15 03:23:39;;;;;;;28.50;6.78;;;;;;;14.71;63.75;101885.31;5035344;28;20078;-49
2022/05/15 03:26:06;;;;;;;22.73;5.97;;;;;;;14.70;63.79;101886.44;5011399;28;20145;-49
2022/05/15 03:28:34;;;;;;;21.52;6.72;;;;;;;14.69;64.17;101885.59;5033939;28;20049;-48
2022/05/15 03:31:02;;;;;;;24.23;6.90;;;;;;;14.62;64.04;101875.97;5035068;28;20056;-49
2022/05/15 03:33:29;;;;;;;19.70;5.70;;;;;;;14.60;64.39;101878.16;5035276;28;20049;-49
2022/05/15 03:35:57;;;;;;;21.88;6.07;;;;;;;14.67;64.28;101875.97;5032404;28;20103;-51
2022/05/15 03:38:25;;;;;;;24.80;7.13;;;;;;;14.71;63.86;101877.09;5017310;28;20408;-49
2022/05/15 03:40:53;;;;;;;19.58;6.57;;;;;;;14.70;64.00;101880.94;5017825;28;20049;-51
2022/05/15 03:43:20;;;;;;;25.73;6.88;;;;;;;14.64;63.96;101873.78;5013445;28;20092;-49
2022/05/15 03:45:48;;;;;;;18.02;6.20;;;;;;;14.65;64.17;101872.72;5027098;28;20061;-51
2022/05/15 03:48:16;;;;;;;29.38;7.07;;;;;;;14.65;63.96;101878.19;5033182;28;20091;-51
2022/05/15 03:50:43;;;;;;;24.25;6.93;;;;;;;14.58;64.29;101875.69;5000208;28;20060;-48
2022/05/15 03:53:11;;;;;;;20.05;6.13;;;;;;;14.56;64.45;101882.53;5034111;28;20076;-50
2022/05/15 03:55:39;;;;;;;25.15;6.78;;;;;;;14.52;64.58;101881.41;5033394;28;20565;-51
2022/05/15 03:58:06;;;;;;;22.30;6.35;;;;;;;14.47;64.89;101877.53;5021569;28;20042;-52
2022/05/15 04:00:34;;;;;;;24.15;6.75;;;;;;;14.41;65.00;101875.06;5017373;28;20045;-51
2022/05/15 04:03:02;;;;;;;25.33;6.82;;;;;;;14.38;64.84;101879.16;4999192;28;20049;-51
2022/05/15 04:05:30;;;;;;;26.20;7.25;;;;;;;14.36;65.54;101875.00;5032912;28;20617;-48
2022/05/15 04:07:57;;;;;;;22.13;6.43;;;;;;;14.38;65.46;101876.41;5016719;28;20095;-50
2022/05/15 04:10:26;;;;;;;25.95;7.10;;;;;;;14.43;65.41;101879.19;5015400;28;20041;-49
2022/05/15 04:12:53;;;;;;;23.75;6.70;;;;;;;14.48;64.76;101879.19;5034108;28;20042;-48
2022/05/15 04:15:21;;;;;;;21.27;6.38;;;;;;;14.44;65.17;101875.34;5016709;28;20052;-49
2022/05/15 04:17:50;;;;;;;23.27;6.93;;;;;;;14.39;65.41;101878.06;5034376;28;20408;-46
2022/05/15 04:20:22;;;;;;;23.85;7.45;;;;;;;14.35;65.65;101882.41;4998640;28;20515;-51
2022/05/15 04:22:50;;;;;;;24.73;6.70;;;;;;;14.38;65.74;101872.84;5013608;28;20050;-48
2022/05/15 04:25:19;;;;;;;24.52;7.00;;;;;;;14.40;65.68;101876.94;5014512;28;20492;-53
2022/05/15 04:27:47;;;;;;;25.20;7.75;;;;;;;14.42;65.58;101874.78;5014539;28;20045;-53
2022/05/15 04:30:21;;;;;;;26.63;7.43;;;;;;;14.43;65.54;101884.66;5013272;28;20074;-48
2022/05/15 04:32:51;;;;;;;28.00;7.85;;;;;;;14.41;65.72;101875.88;5014957;28;20500;-51
2022/05/15 04:35:20;;;;;;;25.77;7.32;;;;;;;14.42;65.68;101883.00;5034031;28;20054;-48
2022/05/15 04:37:50;;;;;;;25.63;7.07;;;;;;;14.39;65.66;101878.06;5033208;28;20056;-50
2022/05/15 04:40:19;;;;;;;26.20;7.32;;;;;;;14.40;65.91;101890.66;5034309;28;20046;-49
2022/05/15 04:42:47;;;;;;;28.58;7.63;;;;;;;14.42;65.88;101882.19;4999850;28;20037;-49
2022/05/15 04:45:15;;;;;;;24.38;6.72;;;;;;;14.43;65.69;101887.41;5034017;28;20091;-49
2022/05/15 04:47:47;;;;;;;24.67;6.97;;;;;;;14.45;65.94;101879.72;5012054;28;20046;-48
2022/05/15 04:50:15;;;;;;;19.30;6.50;;;;;;;14.52;65.64;101881.41;5033293;28;20107;-47
2022/05/15 04:52:44;;;;;;;24.08;7.47;;;;;;;14.52;65.59;101886.88;5015032;28;20511;-47
2022/05/15 04:55:12;;;;;;;27.92;7.65;;;;;;;14.45;65.97;101887.94;5034544;28;20041;-47
2022/05/15 04:57:40;;;;;;;19.52;6.05;;;;;;;14.43;66.13;101884.66;5032062;28;20045;-46
2022/05/15 05:00:12;;;;;;;23.55;6.55;;;;;;;14.46;66.13;101884.13;5014294;28;20045;-50
2022/05/15 05:02:40;;;;;;;22.52;6.95;;;;;;;14.52;66.13;101889.63;5015230;28;20048;-48
2022/05/15 05:05:11;;;;;;;23.08;6.97;;;;;;;14.53;66.20;101891.25;5014327;28;20042;-48
2022/05/15 05:07:39;;;;;;;20.27;6.78;;;;;;;14.45;66.43;101887.94;5002302;28;20037;-50
2022/05/15 05:10:09;;;;;;;19.45;6.57;;;;;;;14.39;66.88;101880.81;5032485;28;20049;-50
2022/05/15 05:12:37;;;;;;;25.88;7.25;;;;;;;14.38;67.02;101886.53;5031416;28;20458;-50
2022/05/15 05:15:06;;;;;;;22.77;6.72;;;;;;;14.40;67.19;101885.19;5033769;28;20058;-49
2022/05/15 05:17:34;;;;;;;23.48;6.55;;;;;;;14.44;67.02;101891.78;5031878;28;20084;-49
2022/05/15 05:20:02;;;;;;;23.33;6.63;;;;;;;14.46;67.17;101895.09;5022203;28;20496;-48
2022/05/15 05:22:29;;;;;;;20.90;7.43;;;;;;;14.48;67.14;101890.16;5017095;28;20492;-49
2022/05/15 05:24:57;;;;;;;25.50;7.05;;;;;;;14.54;67.12;101898.44;5016175;28;20045;-47
2022/05/15 05:27:25;;;;;;;22.33;6.80;;;;;;;14.56;66.98;101890.78;5032295;28;20053;-48
2022/05/15 05:29:53;;;;;;;22.88;6.90;;;;;;;14.58;67.28;101899.56;5018125;28;20045;-46
2022/05/15 05:32:21;;;;;;;28.25;7.35;;;;;;;14.60;67.33;101894.59;4997940;28;20488;-48
2022/05/15 05:34:48;;;;;;;29.88;8.93;;;;;;;14.59;67.53;101895.72;5019648;28;20408;-47
2022/05/15 05:37:17;;;;;;;22.17;7.55;;;;;;;14.61;67.45;101896.28;5033226;28;20056;-47
2022/05/15 05:39:46;;;;;;;28.38;7.03;;;;;;;14.62;67.67;101895.16;5015760;28;20052;-48
2022/05/15 05:42:14;;;;;;;25.35;7.05;;;;;;;14.65;67.76;101900.13;5023709;28;20100;-49
2022/05/15 05:44:42;;;;;;;24.38;7.15;;;;;;;14.67;68.10;101897.94;5031144;28;20060;-52
2022/05/15 05:47:09;;;;;;;22.67;6.85;;;;;;;14.68;67.76;101894.94;5015827;28;20041;-48
2022/05/15 05:49:37;;;;;;;28.98;8.40;;;;;;;14.73;68.05;101902.34;5023023;28;20444;-53
2022/05/15 05:52:05;;;;;;;23.63;7.50;;;;;;;14.75;67.89;101893.84;5031563;28;20046;-47
2022/05/15 05:54:32;;;;;;;25.80;7.60;;;;;;;14.76;68.53;101888.09;5032847;28;20045;-43
2022/05/15 05:57:00;;;;;;;24.70;7.97;;;;;;;14.76;68.57;101890.81;5032962;28;20097;-48
2022/05/15 05:59:27;;;;;;;21.67;7.40;;;;;;;14.81;68.01;101890.84;5028776;28;20041;-52
2022/05/15 06:01:55;;;;;;;25.55;8.07;;;;;;;14.83;68.14;101898.81;5029614;28;20034;-53
2022/05/15 06:07:12;;;;;;;22.23;7.70;;;;;;;14.91;68.80;101901.00;5013337;28;20042;-47
2022/05/15 06:09:43;;;;;;;24.92;7.75;;;;;;;14.94;68.84;101896.94;5016013;28;20109;-48
2022/05/15 06:12:13;;;;;;;21.40;7.00;;;;;;;14.97;68.97;101901.88;5013325;28;20042;-47
2022/05/15 06:14:41;;;;;;;34.92;8.23;;;;;;;15.03;68.46;101900.78;5017902;28;20042;-49
2022/05/15 06:17:08;;;;;;;29.98;8.75;;;;;;;15.07;68.42;101893.66;5005441;28;20045;-48
2022/05/15 06:19:36;;;;;;;24.65;7.90;;;;;;;15.11;67.64;101895.59;5031131;28;20041;-49
2022/05/15 06:22:05;;;;;;;24.42;7.32;;;;;;;15.17;67.72;101899.16;5032817;28;20049;-49
2022/05/15 06:24:33;;;;;;;20.35;7.22;;;;;;;15.22;66.89;101892.84;5032754;28;20384;-49
2022/05/15 06:27:02;;;;;;;22.08;7.32;;;;;;;15.24;67.04;101891.47;5035472;28;20052;-47
2022/05/15 06:29:31;;;;;;;25.77;8.68;;;;;;;15.27;67.52;101890.94;5029852;28;20452;-47
2022/05/15 06:31:59;;;;;;;24.38;7.82;;;;;;;15.30;67.43;101890.38;5002322;28;20452;-47
2022/05/15 06:34:26;;;;;;;20.83;7.45;;;;;;;15.34;67.13;101894.25;5009659;28;20052;-47
2022/05/15 06:36:54;;;;;;;19.23;7.30;;;;;;;15.38;67.09;101897.25;5029815;28;20400;-48
2022/05/15 06:39:22;;;;;;;21.92;7.20;;;;;;;15.41;67.14;101901.38;5022366;28;20045;-51
2022/05/15 06:41:50;;;;;;;19.95;6.53;;;;;;;15.45;67.26;101897.00;5028633;28;20045;-47
2022/05/15 06:44:28;;;;;;;22.30;7.28;;;;;;;15.47;66.92;101889.31;5017175;28;20052;-49
2022/05/15 06:46:56;;;;;;;21.10;7.35;;;;;;;15.51;66.76;101890.38;5015590;28;20064;-48
2022/05/15 06:49:24;;;;;;;24.88;8.50;;;;;;;15.53;67.42;101889.00;5024734;28;20133;-49
2022/05/15 06:51:51;;;;;;;24.50;9.13;;;;;;;15.57;67.21;101883.78;5020130;28;20042;-50
2022/05/15 06:54:19;;;;;;;25.55;8.32;;;;;;;15.61;66.94;101893.13;5021511;28;20037;-48
2022/05/15 06:59:39;;;;;;;22.65;7.95;;;;;;;15.71;67.67;101890.41;5022842;28;20049;-50
2022/05/15 07:02:07;;;;;;;21.83;7.70;;;;;;;15.79;67.33;101890.94;5016576;28;20045;-48
2022/05/15 07:04:35;;;;;;;23.33;8.48;;;;;;;15.83;67.93;101890.13;5018138;28;20034;-47
2022/05/15 07:07:03;;;;;;;26.52;8.98;;;;;;;15.91;67.65;101896.97;5026805;28;20069;-48
2022/05/15 07:09:31;;;;;;;23.20;8.38;;;;;;;15.98;66.83;101886.53;5034903;28;20046;-49
2022/05/15 07:11:58;;;;;;;20.73;7.53;;;;;;;16.02;66.92;101884.88;5017895;28;20048;-45
2022/05/15 07:14:26;;;;;;;25.27;7.82;;;;;;;16.04;67.29;101887.31;5026280;28;20045;-52
2022/05/15 07:16:54;;;;;;;20.90;8.48;;;;;;;16.09;67.33;101888.16;5022679;28;20087;-49
2022/05/15 07:19:22;;;;;;;18.42;7.13;;;;;;;16.15;66.46;101884.25;5026138;28;20157;-49
2022/05/15 07:21:49;;;;;;;22.67;8.43;;;;;;;16.19;66.57;101890.84;5011334;28;20054;-50
2022/05/15 07:24:17;;;;;;;22.05;8.88;;;;;;;16.23;66.57;101890.28;5023894;28;20052;-48
2022/05/15 07:26:45;;;;;;;31.85;9.40;;;;;;;16.27;67.09;101892.22;5023914;28;20045;-47
2022/05/15 07:29:14;;;;;;;24.63;8.90;;;;;;;16.32;66.84;101894.94;5027556;28;20048;-47
2022/05/15 07:31:43;;;;;;;24.13;9.13;;;;;;;16.43;66.70;101898.47;5021117;28;20108;-47
2022/05/15 07:34:11;;;;;;;22.60;9.43;;;;;;;16.50;65.45;101896.25;5016405;28;20046;-49
2022/05/15 07:36:39;;;;;;;19.92;8.60;;;;;;;16.55;64.60;101904.47;5013965;28;20049;-52
2022/05/15 07:39:07;;;;;;;19.38;7.82;;;;;;;16.60;64.87;101900.88;5000633;28;20041;-51
2022/05/15 07:41:34;;;;;;;23.35;9.25;;;;;;;16.65;64.66;101900.03;5014613;28;20042;-47
2022/05/15 07:44:02;;;;;;;19.95;9.23;;;;;;;16.71;65.27;101890.63;5015780;28;20412;-47
2022/05/15 07:46:30;;;;;;;23.00;8.93;;;;;;;16.76;64.41;101893.34;5015347;28;20042;-50
2022/05/15 07:48:58;;;;;;;22.65;8.48;;;;;;;16.78;64.39;101903.00;5026816;28;20459;-50
2022/05/15 07:51:26;;;;;;;23.80;7.78;;;;;;;16.85;64.33;101897.19;5035195;28;20084;-48
2022/05/15 07:53:53;;;;;;;22.92;8.57;;;;;;;16.87;63.62;101894.19;5035331;28;20041;-49
2022/05/15 07:56:21;;;;;;;22.27;8.82;;;;;;;16.89;63.66;101892.78;5034907;28;20448;-50
2022/05/15 07:58:49;;;;;;;28.00;10.02;;;;;;;16.91;63.88;101890.56;5033146;28;20068;-48
2022/05/15 08:01:17;;;;;;;19.25;8.10;;;;;;;16.93;63.62;101882.84;5034696;28;20042;-50
2022/05/15 08:03:45;;;;;;;18.20;8.07;;;;;;;16.98;63.17;101890.22;5034981;28;20050;-47
2022/05/15 08:09:05;;;;;;;24.33;8.02;;;;;;;17.10;62.43;101895.38;5019999;28;20060;-48
2022/05/15 08:11:33;;;;;;;18.63;7.43;;;;;;;17.19;62.45;101891.75;4997807;28;20038;-48
2022/05/15 08:14:01;;;;;;;23.05;9.15;;;;;;;17.30;61.83;101889.75;5014920;28;20049;-49
2022/05/15 08:16:30;;;;;;;21.73;7.80;;;;;;;17.37;60.76;101893.00;5014914;28;20157;-48
2022/05/15 08:24:29;;;;;;;;;;;;;;;17.38;61.15;101872.59;5015135;28;20034;-47
2022/05/15 08:26:57;;;;;;;22.35;7.72;;;;;;;17.41;61.88;101872.03;5014968;28;19925;-51
2022/05/15 08:29:24;;;;;;;19.58;7.55;;;;;;;17.43;61.05;101874.47;5014249;28;20061;-48
2022/05/15 08:31:52;;;;;;;22.83;7.78;;;;;;;17.53;60.31;101870.81;5014257;28;20405;-50
2022/05/15 08:34:20;;;;;;;22.00;8.20;;;;;;;17.67;59.55;101869.03;5014536;28;20065;-50
2022/05/15 08:36:49;;;;;;;21.75;7.85;;;;;;;17.72;59.60;101863.47;5014448;28;20081;-48
2022/05/15 08:39:16;;;;;;;24.13;7.68;;;;;;;17.78;59.43;101859.56;5029450;28;20038;-52
2022/05/15 08:42:05;;;;;;;24.45;7.70;;;;;;;17.90;58.91;101861.94;5034278;28;20049;-46
2022/05/15 08:44:36;;;;;;;27.73;9.75;;;;;;;18.02;58.31;101853.28;5017117;28;20041;-49
2022/05/15 08:47:22;;;;;;;19.05;7.45;;;;;;;18.13;57.88;101854.78;5035295;28;20056;-49
2022/05/15 08:49:58;;;;;;;22.90;7.80;;;;;;;18.28;56.68;101848.28;5034691;28;20050;-49
2022/05/15 08:52:54;;;;;;;21.73;9.60;;;;;;;18.27;57.37;101841.91;5034195;28;20060;-47
2022/05/15 08:55:24;;;;;;;25.45;10.68;;;;;;;18.28;57.14;101834.50;5016579;28;20047;-48
2022/05/15 08:58:01;;;;;;;23.08;9.45;;;;;;;18.32;55.53;101841.03;5032305;28;20047;-47
2022/05/15 09:00:36;;;;;;;24.65;9.07;;;;;;;18.31;55.71;101837.47;5016495;28;20043;-47
2022/05/15 09:03:17;;;;;;;21.48;7.68;;;;;;;18.27;55.05;101838.34;5016466;28;20037;-47
2022/05/15 09:06:03;;;;;;;22.33;8.73;;;;;;;18.35;53.85;101834.09;5033821;28;20046;-48
2022/05/15 09:08:31;;;;;;;;;;;;;;;18.47;53.31;101828.97;5017264;28;20045;-47
2022/05/15 09:11:06;;;;;;;19.52;7.10;;;;;;;18.49;52.32;101824.78;5014071;28;19922;-51
2022/05/15 09:13:51;;;;;;;23.67;11.02;;;;;;;18.58;51.07;101826.91;4996553;28;20046;-50
2022/05/15 09:16:24;;;;;;;30.80;15.40;;;;;;;18.63;49.62;101830.41;4996590;28;20057;-49
2022/05/15 09:18:59;;;;;;;23.25;8.95;;;;;;;18.66;50.83;101831.75;5031166;28;20061;-47
2022/05/15 09:21:28;;;;;;;17.65;6.90;;;;;;;18.80;51.11;101840.13;5033530;28;20034;-51
2022/05/15 09:24:01;;;;;;;20.33;8.25;;;;;;;18.89;50.49;101838.34;5033786;28;20107;-51
2022/05/15 09:26:44;;;;;;;16.73;6.75;;;;;;;18.99;45.70;101834.63;5030244;28;20042;-46
2022/05/15 09:29:22;;;;;;;19.27;6.60;;;;;;;19.04;46.10;101840.06;5014064;28;20048;-48
2022/05/15 09:31:51;;;;;;;16.30;5.15;;;;;;;19.02;44.65;101834.81;5013179;28;20046;-47
2022/05/15 09:34:25;;;;;;;16.33;6.32;;;;;;;19.04;44.79;101840.88;5013771;28;20056;-49
2022/05/15 09:39:44;;;;;;;21.45;9.10;;;;;;;19.14;47.41;101835.16;4998897;28;20050;-49
2022/05/15 09:45:07;;;;;;;21.92;6.85;;;;;;;19.10;45.12;101828.63;5013403;28;20045;-47
2022/05/15 09:47:40;;;;;;;17.67;5.82;;;;;;;19.10;45.29;101822.28;5027196;28;20045;-47
2022/05/15 09:50:42;;;;;;;14.57;5.53;;;;;;;19.16;45.28;101826.59;5033175;28;20069;-48
2022/05/15 09:53:44;;;;;;;14.77;5.65;;;;;;;19.29;44.77;101813.94;5033115;28;20045;-51
2022/05/15 09:56:24;;;;;;;20.05;5.60;;;;;;;19.37;46.37;101821.53;5015329;28;20049;-47
2022/05/15 09:58:52;;;;;;;16.58;5.70;;;;;;;19.36;45.66;101814.34;5032725;28;20046;-48
2022/05/15 10:01:20;;;;;;;15.10;6.03;;;;;;;19.43;45.10;101813.97;5015318;28;20443;-49
2022/05/15 10:03:50;;;;;;;17.98;5.45;;;;;;;19.47;43.70;101810.31;5032983;28;20056;-46
2022/05/15 10:06:21;;;;;;;20.45;5.22;;;;;;;19.58;42.93;101810.94;5013676;28;20052;-48
2022/05/15 10:09:08;;;;;;;14.77;5.57;;;;;;;19.60;44.82;101797.63;5013384;28;20443;-45
2022/05/15 10:11:39;;;;;;;16.67;5.05;;;;;;;19.62;43.18;101800.09;5013184;28;20046;-47
2022/05/15 10:14:08;;;;;;;15.07;4.70;;;;;;;19.69;40.67;101806.06;4979643;28;20053;-47
2022/05/15 10:16:44;;;;;;;19.75;5.07;;;;;;;19.76;39.68;101796.22;4980501;28;20052;-47
2022/05/15 10:19:32;;;;;;;11.43;4.00;;;;;;;19.75;40.92;101800.13;4995898;28;20049;-49
2022/05/15 10:22:33;;;;;;;13.77;3.78;;;;;;;19.79;39.36;101801.16;4995794;28;20453;-48
2022/05/15 10:25:35;;;;;;;16.33;5.03;;;;;;;19.78;41.70;101787.63;5006813;28;20420;-49
2022/05/15 10:28:28;;;;;;;15.02;4.35;;;;;;;19.75;41.50;101794.59;5032704;28;20041;-45
2022/05/15 10:31:18;;;;;;;17.20;6.75;;;;;;;19.94;41.23;101794.50;5032810;28;20499;-46
2022/05/15 10:34:00;;;;;;;17.92;4.65;;;;;;;20.06;39.51;101793.16;5032834;28;20037;-48
2022/05/15 10:37:04;;;;;;;13.57;5.18;;;;;;;20.08;40.87;101791.72;5030475;28;20523;-49
2022/05/15 10:39:54;;;;;;;13.40;4.95;;;;;;;20.04;41.35;101789.91;5032559;28;20048;-49
2022/05/15 10:42:39;;;;;;;15.57;4.40;;;;;;;20.07;37.87;101786.50;5032631;28;20103;-48
2022/05/15 10:45:51;;;;;;;19.43;5.60;;;;;;;20.17;39.57;101789.06;5032043;28;20132;-48
2022/05/15 10:48:32;;;;;;;17.40;5.53;;;;;;;20.21;40.63;101779.81;4895667;29;20049;-52
2022/05/15 10:51:12;;;;;;;14.05;5.20;;;;;;;20.28;39.76;101779.41;4895551;29;20529;-53
2022/05/15 10:57:29;;;;;;;16.17;5.97;;;;;;;20.27;39.73;101769.44;5013749;28;20034;-46
2022/05/15 11:00:15;;;;;;;14.98;4.43;;;;;;;20.25;39.20;101763.41;5024543;28;20099;-47
2022/05/15 11:02:58;;;;;;;17.63;5.00;;;;;;;20.26;39.88;101759.53;5032158;28;20369;-47
2022/05/15 11:05:27;;;;;;;12.82;4.60;;;;;;;20.35;39.29;101752.13;5032638;28;20045;-46
2022/05/15 11:07:54;;;;;;;13.32;4.65;;;;;;;20.38;39.03;101750.69;5017052;28;20041;-47
2022/05/15 11:10:31;;;;;;;11.63;4.20;;;;;;;20.34;40.27;101756.00;5013963;28;20049;-46
2022/05/15 11:13:21;;;;;;;14.13;4.38;;;;;;;20.35;40.23;101754.88;5004449;28;20129;-48
2022/05/15 11:15:58;;;;;;;18.85;4.88;;;;;;;20.40;40.63;101749.22;5018439;28;20047;-46
2022/05/15 11:19:03;;;;;;;18.05;5.82;;;;;;;20.41;42.88;101750.84;5023618;28;20071;-47
2022/05/15 11:21:46;;;;;;;17.33;5.20;;;;;;;20.49;39.79;101752.06;5035255;28;20049;-50
2022/05/15 11:24:42;;;;;;;15.27;4.00;;;;;;;20.56;39.67;101757.19;5035414;28;20046;-47
2022/05/15 11:27:26;;;;;;;14.82;5.18;;;;;;;20.57;38.84;101754.13;5024308;28;20049;-46
2022/05/15 11:29:57;;;;;;;18.55;5.35;;;;;;;20.68;38.64;101742.81;4999425;28;20038;-51
2022/05/15 11:32:48;;;;;;;12.38;4.30;;;;;;;20.73;39.08;101734.38;5024835;28;20046;-45
2022/05/15 11:35:21;;;;;;;13.40;4.20;;;;;;;20.82;38.74;101730.53;5001502;28;20053;-49
2022/05/15 11:38:01;;;;;;;16.80;5.85;;;;;;;20.88;44.84;101730.38;4334906;28;9999924;-49
2022/05/15 11:40:38;;;;;;;17.23;5.28;;;;;;;20.83;39.37;101723.88;5012878;28;20492;-47
2022/05/15 11:43:28;;;;;;;19.10;5.90;;;;;;;21.00;37.74;101714.03;5023097;28;20038;-47
2022/05/15 11:45:58;;;;;;;14.75;5.18;;;;;;;21.02;38.80;101720.06;5029098;28;20088;-48
2022/05/15 11:48:30;;;;;;;16.33;4.63;;;;;;;21.00;38.15;101723.16;5012297;28;20129;-47
2022/05/15 11:51:14;;;;;;;14.57;5.07;;;;;;;21.03;36.13;101714.19;5013257;28;20108;-49
2022/05/15 11:53:52;;;;;;;13.32;4.50;;;;;;;21.09;36.58;101703.78;5031611;28;20045;-48
2022/05/15 11:56:46;;;;;;;12.45;4.20;;;;;;;21.21;35.56;101701.28;5010282;28;20041;-50
2022/05/15 11:59:26;;;;;;;15.93;4.57;;;;;;;21.39;35.55;101701.34;5012022;28;20497;-51
2022/05/15 12:02:00;;;;;;;11.90;4.70;;;;;;;21.34;36.57;101704.25;4982669;28;20083;-48
2022/05/15 12:04:52;;;;;;;12.57;4.18;;;;;;;21.34;36.10;101696.75;5014479;28;20049;-52